sensor_id;sensor_type;location;lat;lon;timestamp;P1;durP1;ratioP1;P2;durP2;ratioP2
57832;SDS011;43667;53.036;6.740;2024-03-22T00:00:18;30.75;;;27.45;;
57832;SDS011;43667;53.036;6.740;2024-03-22T00:02:44;31.45;;;28.02;;
57832;SDS011;43667;53.036;6.740;2024-03-22T00:05:10;32.30;;;28.05;;
57832;SDS011;43667;53.036;6.740;2024-03-22T00:07:36;31.05;;;27.65;;
57832;SDS011;43667;53.036;6.740;2024-03-22T00:10:03;33.95;;;29.35;;
57832;SDS011;43667;53.036;6.740;2024-03-22T00:12:30;33.95;;;28.95;;
57832;SDS011;43667;53.036;6.740;2024-03-22T00:14:56;35.78;;;31.05;;
57832;SDS011;43667;53.036;6.740;2024-03-22T00:17:23;34.85;;;29.13;;
57832;SDS011;43667;53.036;6.740;2024-03-22T00:19:49;36.78;;;30.20;;
57832;SDS011;43667;53.036;6.740;2024-03-22T00:22:15;33.90;;;29.05;;
57832;SDS011;43667;53.036;6.740;2024-03-22T00:24:41;34.58;;;30.75;;
57832;SDS011;43667;53.036;6.740;2024-03-22T00:27:07;37.35;;;32.10;;
57832;SDS011;43667;53.036;6.740;2024-03-22T00:29:33;37.78;;;31.42;;
57832;SDS011;43667;53.036;6.740;2024-03-22T00:31:59;37.53;;;31.52;;
57832;SDS011;43667;53.036;6.740;2024-03-22T00:34:25;36.72;;;32.40;;
57832;SDS011;43667;53.036;6.740;2024-03-22T00:36:51;41.63;;;34.10;;
57832;SDS011;43667;53.036;6.740;2024-03-22T00:39:17;41.35;;;33.33;;
57832;SDS011;43667;53.036;6.740;2024-03-22T00:41:43;44.72;;;33.92;;
57832;SDS011;43667;53.036;6.740;2024-03-22T00:44:09;43.13;;;34.70;;
57832;SDS011;43667;53.036;6.740;2024-03-22T00:46:35;39.60;;;33.22;;
57832;SDS011;43667;53.036;6.740;2024-03-22T00:49:02;42.58;;;35.53;;
57832;SDS011;43667;53.036;6.740;2024-03-22T00:51:28;44.67;;;35.55;;
57832;SDS011;43667;53.036;6.740;2024-03-22T00:53:54;43.03;;;35.00;;
57832;SDS011;43667;53.036;6.740;2024-03-22T00:56:20;43.05;;;35.42;;
57832;SDS011;43667;53.036;6.740;2024-03-22T00:58:46;42.17;;;35.97;;
57832;SDS011;43667;53.036;6.740;2024-03-22T01:01:13;45.58;;;37.42;;
57832;SDS011;43667;53.036;6.740;2024-03-22T01:03:39;43.88;;;36.97;;
57832;SDS011;43667;53.036;6.740;2024-03-22T01:06:05;43.13;;;35.90;;
57832;SDS011;43667;53.036;6.740;2024-03-22T01:08:31;47.08;;;39.60;;
57832;SDS011;43667;53.036;6.740;2024-03-22T01:10:57;47.33;;;39.10;;
57832;SDS011;43667;53.036;6.740;2024-03-22T01:13:23;49.40;;;39.00;;
57832;SDS011;43667;53.036;6.740;2024-03-22T01:15:49;47.25;;;38.45;;
57832;SDS011;43667;53.036;6.740;2024-03-22T01:18:15;53.15;;;39.40;;
57832;SDS011;43667;53.036;6.740;2024-03-22T01:20:41;48.13;;;40.00;;
57832;SDS011;43667;53.036;6.740;2024-03-22T01:23:07;48.03;;;39.50;;
57832;SDS011;43667;53.036;6.740;2024-03-22T01:25:33;52.97;;;41.92;;
57832;SDS011;43667;53.036;6.740;2024-03-22T01:28:02;53.97;;;41.45;;
57832;SDS011;43667;53.036;6.740;2024-03-22T01:30:29;53.00;;;42.42;;
57832;SDS011;43667;53.036;6.740;2024-03-22T01:32:55;56.47;;;42.42;;
57832;SDS011;43667;53.036;6.740;2024-03-22T01:35:21;54.15;;;41.33;;
57832;SDS011;43667;53.036;6.740;2024-03-22T01:37:47;50.83;;;43.10;;
57832;SDS011;43667;53.036;6.740;2024-03-22T01:40:13;54.15;;;41.67;;
57832;SDS011;43667;53.036;6.740;2024-03-22T01:42:40;54.90;;;43.67;;
57832;SDS011;43667;53.036;6.740;2024-03-22T01:45:06;55.22;;;41.03;;
57832;SDS011;43667;53.036;6.740;2024-03-22T01:47:32;58.55;;;43.75;;
57832;SDS011;43667;53.036;6.740;2024-03-22T01:49:58;55.88;;;44.47;;
57832;SDS011;43667;53.036;6.740;2024-03-22T01:52:24;60.10;;;46.03;;
57832;SDS011;43667;53.036;6.740;2024-03-22T01:54:50;58.72;;;46.22;;
57832;SDS011;43667;53.036;6.740;2024-03-22T01:57:16;57.95;;;44.65;;
57832;SDS011;43667;53.036;6.740;2024-03-22T01:59:42;58.55;;;44.50;;
57832;SDS011;43667;53.036;6.740;2024-03-22T02:02:08;57.88;;;45.10;;
57832;SDS011;43667;53.036;6.740;2024-03-22T02:04:36;61.63;;;46.75;;
57832;SDS011;43667;53.036;6.740;2024-03-22T02:07:02;56.67;;;44.65;;
57832;SDS011;43667;53.036;6.740;2024-03-22T02:09:28;63.75;;;46.58;;
57832;SDS011;43667;53.036;6.740;2024-03-22T02:11:54;60.83;;;46.05;;
57832;SDS011;43667;53.036;6.740;2024-03-22T02:14:21;62.42;;;47.55;;
57832;SDS011;43667;53.036;6.740;2024-03-22T02:16:47;65.15;;;46.80;;
57832;SDS011;43667;53.036;6.740;2024-03-22T02:19:13;63.08;;;47.97;;
57832;SDS011;43667;53.036;6.740;2024-03-22T02:21:39;60.05;;;46.65;;
57832;SDS011;43667;53.036;6.740;2024-03-22T02:24:05;67.03;;;48.70;;
57832;SDS011;43667;53.036;6.740;2024-03-22T02:26:31;64.78;;;47.63;;
57832;SDS011;43667;53.036;6.740;2024-03-22T02:28:57;67.55;;;49.85;;
57832;SDS011;43667;53.036;6.740;2024-03-22T02:31:23;65.10;;;49.65;;
57832;SDS011;43667;53.036;6.740;2024-03-22T02:33:50;67.28;;;49.55;;
57832;SDS011;43667;53.036;6.740;2024-03-22T02:36:17;67.63;;;48.90;;
57832;SDS011;43667;53.036;6.740;2024-03-22T02:38:43;67.18;;;48.88;;
57832;SDS011;43667;53.036;6.740;2024-03-22T02:41:09;73.13;;;51.55;;
57832;SDS011;43667;53.036;6.740;2024-03-22T02:43:35;63.70;;;48.50;;
57832;SDS011;43667;53.036;6.740;2024-03-22T02:46:01;69.57;;;50.92;;
57832;SDS011;43667;53.036;6.740;2024-03-22T02:48:27;68.82;;;49.40;;
57832;SDS011;43667;53.036;6.740;2024-03-22T02:50:55;69.75;;;50.75;;
57832;SDS011;43667;53.036;6.740;2024-03-22T02:53:21;68.65;;;49.40;;
57832;SDS011;43667;53.036;6.740;2024-03-22T02:55:47;67.82;;;51.40;;
57832;SDS011;43667;53.036;6.740;2024-03-22T02:58:13;67.85;;;49.83;;
57832;SDS011;43667;53.036;6.740;2024-03-22T03:00:39;71.28;;;50.67;;
57832;SDS011;43667;53.036;6.740;2024-03-22T03:03:06;70.18;;;50.60;;
57832;SDS011;43667;53.036;6.740;2024-03-22T03:05:32;71.15;;;51.38;;
57832;SDS011;43667;53.036;6.740;2024-03-22T03:07:58;67.63;;;49.80;;
57832;SDS011;43667;53.036;6.740;2024-03-22T03:10:24;68.30;;;50.42;;
57832;SDS011;43667;53.036;6.740;2024-03-22T03:12:50;69.60;;;49.60;;
57832;SDS011;43667;53.036;6.740;2024-03-22T03:15:17;73.15;;;52.33;;
57832;SDS011;43667;53.036;6.740;2024-03-22T03:17:43;75.20;;;51.42;;
57832;SDS011;43667;53.036;6.740;2024-03-22T03:20:09;74.97;;;52.95;;
57832;SDS011;43667;53.036;6.740;2024-03-22T03:22:38;70.90;;;50.13;;
57832;SDS011;43667;53.036;6.740;2024-03-22T03:25:04;77.50;;;53.47;;
57832;SDS011;43667;53.036;6.740;2024-03-22T03:27:30;77.80;;;53.85;;
57832;SDS011;43667;53.036;6.740;2024-03-22T03:29:56;78.22;;;53.35;;
57832;SDS011;43667;53.036;6.740;2024-03-22T03:32:22;79.00;;;53.00;;
57832;SDS011;43667;53.036;6.740;2024-03-22T03:34:49;81.20;;;54.35;;
57832;SDS011;43667;53.036;6.740;2024-03-22T03:37:15;81.00;;;53.80;;
57832;SDS011;43667;53.036;6.740;2024-03-22T03:39:41;74.03;;;52.78;;
57832;SDS011;43667;53.036;6.740;2024-03-22T03:42:07;80.13;;;54.55;;
57832;SDS011;43667;53.036;6.740;2024-03-22T03:44:33;83.47;;;54.90;;
57832;SDS011;43667;53.036;6.740;2024-03-22T03:47:00;77.82;;;53.38;;
57832;SDS011;43667;53.036;6.740;2024-03-22T03:49:26;79.95;;;54.05;;
57832;SDS011;43667;53.036;6.740;2024-03-22T03:51:52;79.50;;;54.03;;
57832;SDS011;43667;53.036;6.740;2024-03-22T03:54:18;80.20;;;53.65;;
57832;SDS011;43667;53.036;6.740;2024-03-22T03:56:44;80.38;;;56.45;;
57832;SDS011;43667;53.036;6.740;2024-03-22T03:59:10;83.35;;;56.22;;
57832;SDS011;43667;53.036;6.740;2024-03-22T04:01:36;81.88;;;54.70;;
57832;SDS011;43667;53.036;6.740;2024-03-22T04:04:03;82.75;;;54.97;;
57832;SDS011;43667;53.036;6.740;2024-03-22T04:06:29;86.07;;;55.30;;
57832;SDS011;43667;53.036;6.740;2024-03-22T04:08:55;81.88;;;53.97;;
57832;SDS011;43667;53.036;6.740;2024-03-22T04:11:22;83.50;;;55.00;;
57832;SDS011;43667;53.036;6.740;2024-03-22T04:13:48;78.72;;;54.75;;
57832;SDS011;43667;53.036;6.740;2024-03-22T04:16:14;78.03;;;54.28;;
57832;SDS011;43667;53.036;6.740;2024-03-22T04:18:41;82.50;;;54.15;;
57832;SDS011;43667;53.036;6.740;2024-03-22T04:21:07;83.80;;;55.03;;
57832;SDS011;43667;53.036;6.740;2024-03-22T04:23:33;83.15;;;54.28;;
57832;SDS011;43667;53.036;6.740;2024-03-22T04:25:59;81.43;;;54.72;;
57832;SDS011;43667;53.036;6.740;2024-03-22T04:28:25;78.20;;;52.53;;
57832;SDS011;43667;53.036;6.740;2024-03-22T04:30:58;81.30;;;52.45;;
57832;SDS011;43667;53.036;6.740;2024-03-22T04:33:25;79.70;;;52.97;;
57832;SDS011;43667;53.036;6.740;2024-03-22T04:35:51;84.35;;;54.78;;
57832;SDS011;43667;53.036;6.740;2024-03-22T04:38:17;76.57;;;51.38;;
57832;SDS011;43667;53.036;6.740;2024-03-22T04:40:43;82.80;;;52.75;;
57832;SDS011;43667;53.036;6.740;2024-03-22T04:43:09;80.88;;;51.90;;
57832;SDS011;43667;53.036;6.740;2024-03-22T04:45:35;77.22;;;49.08;;
57832;SDS011;43667;53.036;6.740;2024-03-22T04:48:03;78.68;;;49.00;;
57832;SDS011;43667;53.036;6.740;2024-03-22T04:50:29;84.25;;;51.20;;
57832;SDS011;43667;53.036;6.740;2024-03-22T04:52:55;74.93;;;48.42;;
57832;SDS011;43667;53.036;6.740;2024-03-22T04:55:22;76.57;;;48.35;;
57832;SDS011;43667;53.036;6.740;2024-03-22T04:57:48;71.03;;;47.10;;
57832;SDS011;43667;53.036;6.740;2024-03-22T05:00:14;75.47;;;47.20;;
57832;SDS011;43667;53.036;6.740;2024-03-22T05:02:40;76.60;;;46.67;;
57832;SDS011;43667;53.036;6.740;2024-03-22T05:05:06;73.75;;;47.38;;
57832;SDS011;43667;53.036;6.740;2024-03-22T05:07:35;73.78;;;48.53;;
57832;SDS011;43667;53.036;6.740;2024-03-22T05:10:01;76.30;;;47.28;;
57832;SDS011;43667;53.036;6.740;2024-03-22T05:12:28;73.32;;;47.10;;
57832;SDS011;43667;53.036;6.740;2024-03-22T05:14:54;71.78;;;46.35;;
57832;SDS011;43667;53.036;6.740;2024-03-22T05:17:20;73.00;;;45.45;;
57832;SDS011;43667;53.036;6.740;2024-03-22T05:19:47;72.45;;;45.47;;
57832;SDS011;43667;53.036;6.740;2024-03-22T05:22:13;69.25;;;43.88;;
57832;SDS011;43667;53.036;6.740;2024-03-22T05:24:39;73.70;;;45.00;;
57832;SDS011;43667;53.036;6.740;2024-03-22T05:27:05;67.00;;;43.70;;
57832;SDS011;43667;53.036;6.740;2024-03-22T05:29:31;66.18;;;43.45;;
57832;SDS011;43667;53.036;6.740;2024-03-22T05:31:57;67.43;;;43.25;;
57832;SDS011;43667;53.036;6.740;2024-03-22T05:34:23;63.03;;;41.53;;
57832;SDS011;43667;53.036;6.740;2024-03-22T05:36:49;71.28;;;41.67;;
57832;SDS011;43667;53.036;6.740;2024-03-22T05:39:15;64.05;;;41.28;;
57832;SDS011;43667;53.036;6.740;2024-03-22T05:41:41;69.97;;;44.22;;
57832;SDS011;43667;53.036;6.740;2024-03-22T05:44:07;62.60;;;39.00;;
57832;SDS011;43667;53.036;6.740;2024-03-22T05:46:33;75.15;;;42.17;;
57832;SDS011;43667;53.036;6.740;2024-03-22T05:49:00;68.70;;;41.75;;
57832;SDS011;43667;53.036;6.740;2024-03-22T05:51:26;67.75;;;41.70;;
57832;SDS011;43667;53.036;6.740;2024-03-22T05:53:52;80.53;;;45.67;;
57832;SDS011;43667;53.036;6.740;2024-03-22T05:56:18;83.78;;;45.78;;
57832;SDS011;43667;53.036;6.740;2024-03-22T05:58:44;83.05;;;46.00;;
57832;SDS011;43667;53.036;6.740;2024-03-22T06:01:10;91.25;;;49.60;;
57832;SDS011;43667;53.036;6.740;2024-03-22T06:03:36;88.80;;;48.47;;
57832;SDS011;43667;53.036;6.740;2024-03-22T06:06:02;90.28;;;48.53;;
57832;SDS011;43667;53.036;6.740;2024-03-22T06:08:28;88.07;;;46.00;;
57832;SDS011;43667;53.036;6.740;2024-03-22T06:10:56;87.45;;;47.25;;
57832;SDS011;43667;53.036;6.740;2024-03-22T06:13:23;81.68;;;44.42;;
57832;SDS011;43667;53.036;6.740;2024-03-22T06:15:49;79.68;;;44.30;;
57832;SDS011;43667;53.036;6.740;2024-03-22T06:18:15;83.30;;;46.90;;
57832;SDS011;43667;53.036;6.740;2024-03-22T06:20:41;80.93;;;47.38;;
57832;SDS011;43667;53.036;6.740;2024-03-22T06:23:10;80.65;;;45.13;;
57832;SDS011;43667;53.036;6.740;2024-03-22T06:25:36;81.65;;;46.05;;
57832;SDS011;43667;53.036;6.740;2024-03-22T06:28:02;93.05;;;46.95;;
57832;SDS011;43667;53.036;6.740;2024-03-22T06:30:28;84.88;;;44.47;;
57832;SDS011;43667;53.036;6.740;2024-03-22T06:32:54;85.18;;;47.50;;
57832;SDS011;43667;53.036;6.740;2024-03-22T06:35:21;72.10;;;44.10;;
57832;SDS011;43667;53.036;6.740;2024-03-22T06:37:47;77.15;;;43.20;;
57832;SDS011;43667;53.036;6.740;2024-03-22T06:40:13;77.03;;;42.65;;
57832;SDS011;43667;53.036;6.740;2024-03-22T06:42:40;73.78;;;42.67;;
57832;SDS011;43667;53.036;6.740;2024-03-22T06:45:06;73.60;;;42.25;;
57832;SDS011;43667;53.036;6.740;2024-03-22T06:47:32;71.90;;;44.00;;
57832;SDS011;43667;53.036;6.740;2024-03-22T06:49:58;66.50;;;42.42;;
57832;SDS011;43667;53.036;6.740;2024-03-22T06:52:24;75.85;;;42.15;;
57832;SDS011;43667;53.036;6.740;2024-03-22T06:54:51;64.40;;;40.70;;
57832;SDS011;43667;53.036;6.740;2024-03-22T06:57:18;65.82;;;39.47;;
57832;SDS011;43667;53.036;6.740;2024-03-22T06:59:44;59.90;;;38.53;;
57832;SDS011;43667;53.036;6.740;2024-03-22T07:02:10;72.78;;;41.05;;
57832;SDS011;43667;53.036;6.740;2024-03-22T07:04:38;66.65;;;39.90;;
57832;SDS011;43667;53.036;6.740;2024-03-22T07:07:04;60.08;;;37.65;;
57832;SDS011;43667;53.036;6.740;2024-03-22T07:09:32;66.45;;;40.88;;
57832;SDS011;43667;53.036;6.740;2024-03-22T07:11:58;60.45;;;35.42;;
57832;SDS011;43667;53.036;6.740;2024-03-22T07:14:24;56.05;;;36.35;;
57832;SDS011;43667;53.036;6.740;2024-03-22T07:16:51;57.83;;;36.97;;
57832;SDS011;43667;53.036;6.740;2024-03-22T07:19:19;57.25;;;34.92;;
57832;SDS011;43667;53.036;6.740;2024-03-22T07:21:45;58.85;;;36.25;;
57832;SDS011;43667;53.036;6.740;2024-03-22T07:24:12;63.53;;;36.88;;
57832;SDS011;43667;53.036;6.740;2024-03-22T07:26:38;56.90;;;34.35;;
57832;SDS011;43667;53.036;6.740;2024-03-22T07:29:04;53.92;;;32.65;;
57832;SDS011;43667;53.036;6.740;2024-03-22T07:31:30;56.85;;;32.47;;
57832;SDS011;43667;53.036;6.740;2024-03-22T07:33:56;54.75;;;33.05;;
57832;SDS011;43667;53.036;6.740;2024-03-22T07:36:22;52.28;;;32.42;;
57832;SDS011;43667;53.036;6.740;2024-03-22T07:38:48;51.15;;;32.05;;
57832;SDS011;43667;53.036;6.740;2024-03-22T07:41:14;48.47;;;30.63;;
57832;SDS011;43667;53.036;6.740;2024-03-22T07:43:40;49.42;;;29.90;;
57832;SDS011;43667;53.036;6.740;2024-03-22T07:46:06;44.15;;;30.17;;
57832;SDS011;43667;53.036;6.740;2024-03-22T07:48:32;48.42;;;30.65;;
57832;SDS011;43667;53.036;6.740;2024-03-22T07:50:58;43.55;;;29.08;;
57832;SDS011;43667;53.036;6.740;2024-03-22T07:53:26;46.40;;;29.35;;
57832;SDS011;43667;53.036;6.740;2024-03-22T07:55:52;53.08;;;29.25;;
57832;SDS011;43667;53.036;6.740;2024-03-22T07:58:19;53.95;;;28.48;;
57832;SDS011;43667;53.036;6.740;2024-03-22T08:00:45;41.72;;;27.15;;
57832;SDS011;43667;53.036;6.740;2024-03-22T08:03:13;49.22;;;29.42;;
57832;SDS011;43667;53.036;6.740;2024-03-22T08:05:40;48.00;;;27.60;;
57832;SDS011;43667;53.036;6.740;2024-03-22T08:08:06;49.33;;;29.73;;
57832;SDS011;43667;53.036;6.740;2024-03-22T08:10:32;42.67;;;26.05;;
57832;SDS011;43667;53.036;6.740;2024-03-22T08:12:58;48.97;;;28.42;;
57832;SDS011;43667;53.036;6.740;2024-03-22T08:15:25;55.00;;;29.80;;
57832;SDS011;43667;53.036;6.740;2024-03-22T08:17:51;46.10;;;25.92;;
57832;SDS011;43667;53.036;6.740;2024-03-22T08:20:17;48.80;;;28.00;;
57832;SDS011;43667;53.036;6.740;2024-03-22T08:22:43;48.80;;;27.52;;
57832;SDS011;43667;53.036;6.740;2024-03-22T08:25:09;50.33;;;28.10;;
57832;SDS011;43667;53.036;6.740;2024-03-22T08:27:36;48.25;;;26.70;;
57832;SDS011;43667;53.036;6.740;2024-03-22T08:30:02;41.17;;;24.17;;
57832;SDS011;43667;53.036;6.740;2024-03-22T08:32:28;53.20;;;28.00;;
57832;SDS011;43667;53.036;6.740;2024-03-22T08:34:54;53.72;;;28.20;;
57832;SDS011;43667;53.036;6.740;2024-03-22T08:37:21;53.10;;;28.85;;
57832;SDS011;43667;53.036;6.740;2024-03-22T08:39:47;43.30;;;26.45;;
57832;SDS011;43667;53.036;6.740;2024-03-22T08:42:13;44.35;;;26.23;;
57832;SDS011;43667;53.036;6.740;2024-03-22T08:44:39;51.25;;;27.42;;
57832;SDS011;43667;53.036;6.740;2024-03-22T08:47:05;47.90;;;25.52;;
57832;SDS011;43667;53.036;6.740;2024-03-22T08:49:31;45.65;;;24.95;;
57832;SDS011;43667;53.036;6.740;2024-03-22T08:51:57;44.92;;;24.48;;
57832;SDS011;43667;53.036;6.740;2024-03-22T08:54:23;42.33;;;24.45;;
57832;SDS011;43667;53.036;6.740;2024-03-22T08:56:49;35.47;;;21.17;;
57832;SDS011;43667;53.036;6.740;2024-03-22T08:59:15;38.63;;;22.08;;
57832;SDS011;43667;53.036;6.740;2024-03-22T09:01:41;34.15;;;20.52;;
57832;SDS011;43667;53.036;6.740;2024-03-22T09:04:07;40.33;;;21.67;;
57832;SDS011;43667;53.036;6.740;2024-03-22T09:06:34;40.30;;;22.63;;
57832;SDS011;43667;53.036;6.740;2024-03-22T09:09:00;39.13;;;20.23;;
57832;SDS011;43667;53.036;6.740;2024-03-22T09:11:26;29.63;;;17.83;;
57832;SDS011;43667;53.036;6.740;2024-03-22T09:13:52;32.75;;;18.60;;
57832;SDS011;43667;53.036;6.740;2024-03-22T09:16:22;34.25;;;19.58;;
57832;SDS011;43667;53.036;6.740;2024-03-22T09:18:48;27.75;;;17.38;;
57832;SDS011;43667;53.036;6.740;2024-03-22T09:21:14;30.75;;;18.70;;
57832;SDS011;43667;53.036;6.740;2024-03-22T09:23:40;25.98;;;17.00;;
57832;SDS011;43667;53.036;6.740;2024-03-22T09:26:06;26.58;;;15.95;;
57832;SDS011;43667;53.036;6.740;2024-03-22T09:28:32;27.02;;;16.50;;
57832;SDS011;43667;53.036;6.740;2024-03-22T09:31:05;31.65;;;17.38;;
57832;SDS011;43667;53.036;6.740;2024-03-22T09:33:34;23.92;;;16.58;;
57832;SDS011;43667;53.036;6.740;2024-03-22T09:36:00;27.48;;;15.93;;
57832;SDS011;43667;53.036;6.740;2024-03-22T09:38:27;24.15;;;16.20;;
57832;SDS011;43667;53.036;6.740;2024-03-22T09:40:53;26.42;;;15.95;;
57832;SDS011;43667;53.036;6.740;2024-03-22T09:43:20;30.10;;;17.20;;
57832;SDS011;43667;53.036;6.740;2024-03-22T09:45:49;27.17;;;15.93;;
57832;SDS011;43667;53.036;6.740;2024-03-22T09:48:19;28.48;;;16.25;;
57832;SDS011;43667;53.036;6.740;2024-03-22T09:50:48;23.98;;;15.00;;
57832;SDS011;43667;53.036;6.740;2024-03-22T09:53:18;23.77;;;15.43;;
57832;SDS011;43667;53.036;6.740;2024-03-22T09:55:44;23.63;;;13.68;;
57832;SDS011;43667;53.036;6.740;2024-03-22T09:58:10;23.90;;;14.18;;
57832;SDS011;43667;53.036;6.740;2024-03-22T10:00:36;20.55;;;14.15;;
57832;SDS011;43667;53.036;6.740;2024-03-22T10:03:03;19.88;;;13.20;;
57832;SDS011;43667;53.036;6.740;2024-03-22T10:05:29;23.35;;;13.38;;
57832;SDS011;43667;53.036;6.740;2024-03-22T10:07:55;26.67;;;14.77;;
57832;SDS011;43667;53.036;6.740;2024-03-22T10:10:21;22.38;;;13.60;;
57832;SDS011;43667;53.036;6.740;2024-03-22T10:12:48;16.90;;;12.00;;
57832;SDS011;43667;53.036;6.740;2024-03-22T10:15:14;16.60;;;10.90;;
57832;SDS011;43667;53.036;6.740;2024-03-22T10:17:40;17.77;;;11.52;;
57832;SDS011;43667;53.036;6.740;2024-03-22T10:20:06;15.00;;;11.15;;
57832;SDS011;43667;53.036;6.740;2024-03-22T10:22:48;16.73;;;11.05;;
57832;SDS011;43667;53.036;6.740;2024-03-22T10:25:14;12.93;;;9.88;;
57832;SDS011;43667;53.036;6.740;2024-03-22T10:27:41;16.08;;;11.32;;
57832;SDS011;43667;53.036;6.740;2024-03-22T10:30:08;13.52;;;10.50;;
57832;SDS011;43667;53.036;6.740;2024-03-22T10:32:35;15.05;;;10.20;;
57832;SDS011;43667;53.036;6.740;2024-03-22T10:35:02;15.82;;;10.88;;
57832;SDS011;43667;53.036;6.740;2024-03-22T10:37:32;12.55;;;8.93;;
57832;SDS011;43667;53.036;6.740;2024-03-22T10:40:00;13.27;;;10.57;;
57832;SDS011;43667;53.036;6.740;2024-03-22T10:42:32;14.40;;;9.85;;
57832;SDS011;43667;53.036;6.740;2024-03-22T10:44:58;13.02;;;9.15;;
57832;SDS011;43667;53.036;6.740;2024-03-22T10:47:24;14.02;;;9.23;;
57832;SDS011;43667;53.036;6.740;2024-03-22T10:49:55;13.43;;;9.63;;
57832;SDS011;43667;53.036;6.740;2024-03-22T10:52:24;12.60;;;9.88;;
57832;SDS011;43667;53.036;6.740;2024-03-22T10:54:50;11.73;;;8.32;;
57832;SDS011;43667;53.036;6.740;2024-03-22T10:57:16;8.98;;;6.47;;
57832;SDS011;43667;53.036;6.740;2024-03-22T10:59:43;10.27;;;7.55;;
57832;SDS011;43667;53.036;6.740;2024-03-22T11:02:12;9.43;;;6.13;;
57832;SDS011;43667;53.036;6.740;2024-03-22T11:04:38;8.10;;;6.38;;
57832;SDS011;43667;53.036;6.740;2024-03-22T11:07:04;9.57;;;7.00;;
57832;SDS011;43667;53.036;6.740;2024-03-22T11:09:31;8.90;;;6.63;;
57832;SDS011;43667;53.036;6.740;2024-03-22T11:11:57;7.05;;;5.85;;
57832;SDS011;43667;53.036;6.740;2024-03-22T11:14:24;9.38;;;6.30;;
57832;SDS011;43667;53.036;6.740;2024-03-22T11:16:50;7.55;;;5.88;;
57832;SDS011;43667;53.036;6.740;2024-03-22T11:19:16;6.57;;;5.70;;
57832;SDS011;43667;53.036;6.740;2024-03-22T11:21:42;7.43;;;5.53;;
57832;SDS011;43667;53.036;6.740;2024-03-22T11:24:08;7.03;;;5.63;;
57832;SDS011;43667;53.036;6.740;2024-03-22T11:26:36;6.03;;;4.97;;
57832;SDS011;43667;53.036;6.740;2024-03-22T11:29:02;6.45;;;4.80;;
57832;SDS011;43667;53.036;6.740;2024-03-22T11:31:28;5.60;;;4.18;;
57832;SDS011;43667;53.036;6.740;2024-03-22T11:33:54;6.53;;;4.38;;
57832;SDS011;43667;53.036;6.740;2024-03-22T11:36:21;8.18;;;4.60;;
57832;SDS011;43667;53.036;6.740;2024-03-22T11:38:47;6.88;;;4.45;;
57832;SDS011;43667;53.036;6.740;2024-03-22T11:41:16;5.10;;;4.20;;
57832;SDS011;43667;53.036;6.740;2024-03-22T11:43:43;5.43;;;4.00;;
57832;SDS011;43667;53.036;6.740;2024-03-22T11:46:10;4.47;;;3.50;;
57832;SDS011;43667;53.036;6.740;2024-03-22T11:48:40;5.63;;;4.32;;
57832;SDS011;43667;53.036;6.740;2024-03-22T11:51:06;4.35;;;3.47;;
57832;SDS011;43667;53.036;6.740;2024-03-22T11:53:33;4.82;;;3.60;;
57832;SDS011;43667;53.036;6.740;2024-03-22T11:55:59;4.43;;;4.00;;
57832;SDS011;43667;53.036;6.740;2024-03-22T11:58:27;5.38;;;3.60;;
57832;SDS011;43667;53.036;6.740;2024-03-22T12:00:53;4.93;;;3.20;;
57832;SDS011;43667;53.036;6.740;2024-03-22T12:03:19;4.57;;;2.60;;
57832;SDS011;43667;53.036;6.740;2024-03-22T12:05:46;4.13;;;3.60;;
57832;SDS011;43667;53.036;6.740;2024-03-22T12:08:13;3.67;;;2.75;;
57832;SDS011;43667;53.036;6.740;2024-03-22T12:10:39;4.47;;;3.50;;
57832;SDS011;43667;53.036;6.740;2024-03-22T12:13:05;3.78;;;3.15;;
57832;SDS011;43667;53.036;6.740;2024-03-22T12:15:31;4.18;;;2.65;;
57832;SDS011;43667;53.036;6.740;2024-03-22T12:17:57;4.80;;;3.33;;
57832;SDS011;43667;53.036;6.740;2024-03-22T12:20:23;5.30;;;2.75;;
57832;SDS011;43667;53.036;6.740;2024-03-22T12:22:49;4.15;;;3.00;;
57832;SDS011;43667;53.036;6.740;2024-03-22T12:25:15;4.75;;;3.03;;
57832;SDS011;43667;53.036;6.740;2024-03-22T12:27:41;5.20;;;2.90;;
57832;SDS011;43667;53.036;6.740;2024-03-22T12:30:09;5.00;;;2.60;;
57832;SDS011;43667;53.036;6.740;2024-03-22T12:32:35;4.05;;;2.42;;
57832;SDS011;43667;53.036;6.740;2024-03-22T12:35:01;4.28;;;2.30;;
57832;SDS011;43667;53.036;6.740;2024-03-22T12:37:27;4.43;;;2.20;;
57832;SDS011;43667;53.036;6.740;2024-03-22T12:39:53;6.75;;;2.45;;
57832;SDS011;43667;53.036;6.740;2024-03-22T12:42:20;4.38;;;2.38;;
57832;SDS011;43667;53.036;6.740;2024-03-22T12:44:46;5.55;;;2.55;;
57832;SDS011;43667;53.036;6.740;2024-03-22T12:47:12;6.35;;;2.97;;
57832;SDS011;43667;53.036;6.740;2024-03-22T12:49:38;6.15;;;2.95;;
57832;SDS011;43667;53.036;6.740;2024-03-22T12:52:04;7.80;;;3.50;;
57832;SDS011;43667;53.036;6.740;2024-03-22T12:54:30;6.38;;;2.63;;
57832;SDS011;43667;53.036;6.740;2024-03-22T12:56:58;8.35;;;3.47;;
57832;SDS011;43667;53.036;6.740;2024-03-22T12:59:24;6.85;;;3.08;;
57832;SDS011;43667;53.036;6.740;2024-03-22T13:01:50;6.00;;;3.15;;
57832;SDS011;43667;53.036;6.740;2024-03-22T13:04:17;6.63;;;3.33;;
57832;SDS011;43667;53.036;6.740;2024-03-22T13:06:43;10.68;;;3.70;;
57832;SDS011;43667;53.036;6.740;2024-03-22T13:09:09;6.45;;;3.38;;
57832;SDS011;43667;53.036;6.740;2024-03-22T13:11:35;7.28;;;3.45;;
57832;SDS011;43667;53.036;6.740;2024-03-22T13:14:02;7.43;;;3.75;;
57832;SDS011;43667;53.036;6.740;2024-03-22T13:16:28;7.63;;;3.38;;
57832;SDS011;43667;53.036;6.740;2024-03-22T13:18:54;9.75;;;3.53;;
57832;SDS011;43667;53.036;6.740;2024-03-22T13:21:20;8.13;;;3.70;;
57832;SDS011;43667;53.036;6.740;2024-03-22T13:23:46;6.55;;;3.50;;
57832;SDS011;43667;53.036;6.740;2024-03-22T13:26:12;7.93;;;3.85;;
57832;SDS011;43667;53.036;6.740;2024-03-22T13:28:38;9.68;;;3.72;;
57832;SDS011;43667;53.036;6.740;2024-03-22T13:31:07;9.13;;;3.67;;
57832;SDS011;43667;53.036;6.740;2024-03-22T13:33:33;9.73;;;4.45;;
57832;SDS011;43667;53.036;6.740;2024-03-22T13:36:00;9.60;;;4.38;;
57832;SDS011;43667;53.036;6.740;2024-03-22T13:38:26;9.18;;;3.90;;
57832;SDS011;43667;53.036;6.740;2024-03-22T13:40:54;9.05;;;3.35;;
57832;SDS011;43667;53.036;6.740;2024-03-22T13:43:20;11.65;;;3.95;;
57832;SDS011;43667;53.036;6.740;2024-03-22T13:45:47;15.30;;;4.10;;
57832;SDS011;43667;53.036;6.740;2024-03-22T13:48:15;10.93;;;3.22;;
57832;SDS011;43667;53.036;6.740;2024-03-22T13:50:41;9.75;;;3.42;;
57832;SDS011;43667;53.036;6.740;2024-03-22T13:53:07;15.02;;;4.15;;
57832;SDS011;43667;53.036;6.740;2024-03-22T13:55:33;11.55;;;4.10;;
57832;SDS011;43667;53.036;6.740;2024-03-22T13:57:59;15.52;;;4.63;;
57832;SDS011;43667;53.036;6.740;2024-03-22T14:00:26;17.52;;;4.38;;
57832;SDS011;43667;53.036;6.740;2024-03-22T14:02:52;19.50;;;4.90;;
57832;SDS011;43667;53.036;6.740;2024-03-22T14:05:19;18.77;;;5.20;;
57832;SDS011;43667;53.036;6.740;2024-03-22T14:07:46;15.30;;;4.85;;
57832;SDS011;43667;53.036;6.740;2024-03-22T14:10:12;20.42;;;5.30;;
57832;SDS011;43667;53.036;6.740;2024-03-22T14:12:41;20.45;;;5.05;;
57832;SDS011;43667;53.036;6.740;2024-03-22T14:15:07;15.43;;;4.30;;
57832;SDS011;43667;53.036;6.740;2024-03-22T14:17:33;15.80;;;5.13;;
57832;SDS011;43667;53.036;6.740;2024-03-22T14:19:59;17.95;;;5.18;;
57832;SDS011;43667;53.036;6.740;2024-03-22T14:22:25;20.38;;;5.55;;